松山國際航空站 - 塔臺

METAR RCSS 250100Z 10007KT 9999 -RA FEW008 BKN020 BKN035 22/19 Q1018 NOSIG RMK A3008(S)=

站台狀態:Offline
最後更新:2021-10-25 09:00:02